Rosefield, Louisiana
Current Conditions -  °F | °C
As of 12:53 PM on Thursday 30 Oct 2014 (Local Time) from KESF Reporting Station
Clear Clear  
Wind Chill: 72°   Ceiling: Unl
Heat Index: 72°   Visibility: 10mi
Dew Point: 45°   Wind: 7mph
Humidity: 38%   Direction: 110°ESE
Pressure: 30.13"   Gusts: NA
Location:  31.8657°N, 92.2616°W
Report Text: KESF 301753Z AUTO 11006KT 10SM CLR 22/07 A3013 RMK AO2 SLP202 T02220072 10222 20044 58014
Loading
Personal Weather Stations






























Interactive Weather Map
Tropical Storm Tracking
New forecast layout! Learn more

10-Day Weather Forecast

Advertisements
Track Severe Weather on mobile